sensor_id;sensor_type;location;lat;lon;timestamp;pressure;altitude;pressure_sealevel;temperature;humidity
3464;BME280;3551;41.578;24.706;2022-12-18T00:00:59;91758.75;;;9.51;100.00
3464;BME280;3551;41.578;24.706;2022-12-18T00:06:45;91752.22;;;9.45;100.00
3464;BME280;3551;41.578;24.706;2022-12-18T00:20:00;91762.88;;;9.49;100.00
3464;BME280;3551;41.578;24.706;2022-12-18T00:22:44;91768.25;;;9.52;100.00
3464;BME280;3551;41.578;24.706;2022-12-18T00:25:26;91767.84;;;9.47;100.00
3464;BME280;3551;41.578;24.706;2022-12-18T00:27:55;91780.38;;;9.39;100.00
3464;BME280;3551;41.578;24.706;2022-12-18T00:30:29;91789.94;;;9.44;100.00
3464;BME280;3551;41.578;24.706;2022-12-18T00:33:09;91790.28;;;9.39;100.00
3464;BME280;3551;41.578;24.706;2022-12-18T00:39:20;91795.16;;;9.30;100.00
3464;BME280;3551;41.578;24.706;2022-12-18T00:41:50;91802.06;;;9.38;100.00
3464;BME280;3551;41.578;24.706;2022-12-18T00:44:41;91796.69;;;9.34;100.00
3464;BME280;3551;41.578;24.706;2022-12-18T00:47:25;91802.44;;;9.33;100.00
3464;BME280;3551;41.578;24.706;2022-12-18T00:49:58;91799.41;;;9.38;100.00
3464;BME280;3551;41.578;24.706;2022-12-18T00:52:39;91803.63;;;9.39;100.00
3464;BME280;3551;41.578;24.706;2022-12-18T00:55:24;91809.97;;;9.24;100.00
3464;BME280;3551;41.578;24.706;2022-12-18T00:57:59;91804.59;;;9.20;100.00
3464;BME280;3551;41.578;24.706;2022-12-18T01:00:40;91808.13;;;9.31;100.00
3464;BME280;3551;41.578;24.706;2022-12-18T01:03:09;91812.72;;;9.34;100.00
3464;BME280;3551;41.578;24.706;2022-12-18T01:05:51;91806.81;;;9.15;100.00
3464;BME280;3551;41.578;24.706;2022-12-18T01:08:38;91806.13;;;9.21;100.00
3464;BME280;3551;41.578;24.706;2022-12-18T01:11:20;91805.00;;;9.26;100.00
3464;BME280;3551;41.578;24.706;2022-12-18T01:14:04;91809.63;;;9.29;100.00
3464;BME280;3551;41.578;24.706;2022-12-18T01:16:33;91804.66;;;8.90;100.00
3464;BME280;3551;41.578;24.706;2022-12-18T01:19:08;91805.03;;;8.89;100.00
3464;BME280;3551;41.578;24.706;2022-12-18T01:21:38;91809.94;;;8.83;100.00
3464;BME280;3551;41.578;24.706;2022-12-18T01:24:15;91807.03;;;8.99;100.00
3464;BME280;3551;41.578;24.706;2022-12-18T01:27:05;91809.41;;;9.04;100.00
3464;BME280;3551;41.578;24.706;2022-12-18T01:29:46;91812.53;;;9.13;100.00
3464;BME280;3551;41.578;24.706;2022-12-18T01:32:36;91815.34;;;8.90;100.00
3464;BME280;3551;41.578;24.706;2022-12-18T01:36:04;91812.47;;;9.06;100.00
3464;BME280;3551;41.578;24.706;2022-12-18T01:39:05;91814.34;;;9.05;100.00
3464;BME280;3551;41.578;24.706;2022-12-18T01:41:43;91815.91;;;9.07;100.00
3464;BME280;3551;41.578;24.706;2022-12-18T01:44:57;91813.56;;;9.05;100.00
3464;BME280;3551;41.578;24.706;2022-12-18T01:47:26;91807.88;;;9.07;100.00
3464;BME280;3551;41.578;24.706;2022-12-18T01:50:13;91808.16;;;8.94;100.00
3464;BME280;3551;41.578;24.706;2022-12-18T01:52:54;91813.44;;;8.91;100.00
3464;BME280;3551;41.578;24.706;2022-12-18T01:55:42;91803.69;;;9.05;100.00
3464;BME280;3551;41.578;24.706;2022-12-18T01:58:20;91809.75;;;9.02;100.00
3464;BME280;3551;41.578;24.706;2022-12-18T02:01:04;91808.59;;;9.00;100.00
3464;BME280;3551;41.578;24.706;2022-12-18T02:03:40;91809.34;;;9.00;100.00
3464;BME280;3551;41.578;24.706;2022-12-18T02:06:15;91813.56;;;9.01;100.00
3464;BME280;3551;41.578;24.706;2022-12-18T02:08:58;91810.91;;;9.05;100.00
3464;BME280;3551;41.578;24.706;2022-12-18T02:11:39;91814.97;;;8.92;100.00
3464;BME280;3551;41.578;24.706;2022-12-18T02:14:17;91809.25;;;8.90;100.00
3464;BME280;3551;41.578;24.706;2022-12-18T02:16:48;91812.66;;;8.90;100.00
3464;BME280;3551;41.578;24.706;2022-12-18T02:19:41;91808.84;;;8.88;100.00
3464;BME280;3551;41.578;24.706;2022-12-18T02:22:14;91807.38;;;8.94;100.00
3464;BME280;3551;41.578;24.706;2022-12-18T02:25:06;91808.06;;;8.87;100.00
3464;BME280;3551;41.578;24.706;2022-12-18T02:27:48;91811.84;;;8.83;100.00
3464;BME280;3551;41.578;24.706;2022-12-18T02:30:22;91809.22;;;8.86;100.00
3464;BME280;3551;41.578;24.706;2022-12-18T02:32:58;91805.38;;;8.87;100.00
3464;BME280;3551;41.578;24.706;2022-12-18T02:35:31;91804.59;;;8.83;100.00
3464;BME280;3551;41.578;24.706;2022-12-18T02:38:01;91802.34;;;8.85;100.00
3464;BME280;3551;41.578;24.706;2022-12-18T02:40:31;91811.44;;;8.81;100.00
3464;BME280;3551;41.578;24.706;2022-12-18T02:43:06;91795.44;;;8.81;100.00
3464;BME280;3551;41.578;24.706;2022-12-18T02:45:47;91802.94;;;8.72;100.00
3464;BME280;3551;41.578;24.706;2022-12-18T02:48:27;91809.84;;;8.76;100.00
3464;BME280;3551;41.578;24.706;2022-12-18T02:50:59;91815.22;;;8.80;100.00
3464;BME280;3551;41.578;24.706;2022-12-18T02:53:36;91815.59;;;8.78;100.00
3464;BME280;3551;41.578;24.706;2022-12-18T02:56:18;91813.13;;;8.63;100.00
3464;BME280;3551;41.578;24.706;2022-12-18T02:59:04;91824.13;;;8.58;100.00
3464;BME280;3551;41.578;24.706;2022-12-18T03:01:42;91814.97;;;8.55;100.00
3464;BME280;3551;41.578;24.706;2022-12-18T03:04:16;91819.19;;;8.60;100.00
3464;BME280;3551;41.578;24.706;2022-12-18T03:06:49;91826.06;;;8.61;100.00
3464;BME280;3551;41.578;24.706;2022-12-18T03:09:27;91835.84;;;8.53;100.00
3464;BME280;3551;41.578;24.706;2022-12-18T03:12:21;91825.06;;;8.42;100.00
3464;BME280;3551;41.578;24.706;2022-12-18T03:15:01;91832.41;;;8.53;100.00
3464;BME280;3551;41.578;24.706;2022-12-18T03:17:55;91830.94;;;8.55;100.00
3464;BME280;3551;41.578;24.706;2022-12-18T03:20:29;91828.84;;;8.41;100.00
3464;BME280;3551;41.578;24.706;2022-12-18T03:23:15;91829.19;;;8.36;100.00
3464;BME280;3551;41.578;24.706;2022-12-18T03:25:47;91835.00;;;8.19;100.00
3464;BME280;3551;41.578;24.706;2022-12-18T03:31:25;91840.22;;;8.38;100.00
3464;BME280;3551;41.578;24.706;2022-12-18T03:34:08;91834.41;;;8.29;100.00
3464;BME280;3551;41.578;24.706;2022-12-18T03:36:58;91838.78;;;8.18;100.00
3464;BME280;3551;41.578;24.706;2022-12-18T03:39:47;91837.50;;;8.31;100.00
3464;BME280;3551;41.578;24.706;2022-12-18T03:42:22;91839.78;;;8.33;100.00
3464;BME280;3551;41.578;24.706;2022-12-18T03:44:53;91849.84;;;8.46;100.00
3464;BME280;3551;41.578;24.706;2022-12-18T03:47:27;91838.78;;;8.44;100.00
3464;BME280;3551;41.578;24.706;2022-12-18T03:49:56;91845.34;;;8.51;100.00
3464;BME280;3551;41.578;24.706;2022-12-18T03:52:41;91849.00;;;8.39;100.00
3464;BME280;3551;41.578;24.706;2022-12-18T03:55:16;91847.38;;;8.31;100.00
3464;BME280;3551;41.578;24.706;2022-12-18T03:58:00;91858.09;;;8.34;100.00
3464;BME280;3551;41.578;24.706;2022-12-18T04:00:50;91854.28;;;8.35;100.00
3464;BME280;3551;41.578;24.706;2022-12-18T04:03:27;91853.06;;;8.29;100.00
3464;BME280;3551;41.578;24.706;2022-12-18T04:06:02;91857.19;;;8.27;100.00
3464;BME280;3551;41.578;24.706;2022-12-18T04:08:34;91864.50;;;8.30;100.00
3464;BME280;3551;41.578;24.706;2022-12-18T04:11:02;91863.22;;;8.24;100.00
3464;BME280;3551;41.578;24.706;2022-12-18T04:13:34;91866.81;;;8.31;100.00
3464;BME280;3551;41.578;24.706;2022-12-18T04:16:02;91864.66;;;8.40;100.00
3464;BME280;3551;41.578;24.706;2022-12-18T04:18:53;91864.13;;;8.31;100.00
3464;BME280;3551;41.578;24.706;2022-12-18T04:21:55;91861.22;;;8.40;100.00
3464;BME280;3551;41.578;24.706;2022-12-18T04:24:48;91864.84;;;8.28;100.00
3464;BME280;3551;41.578;24.706;2022-12-18T04:27:36;91872.13;;;8.31;100.00
3464;BME280;3551;41.578;24.706;2022-12-18T04:30:08;91871.09;;;8.39;100.00
3464;BME280;3551;41.578;24.706;2022-12-18T04:32:49;91872.16;;;8.35;100.00
3464;BME280;3551;41.578;24.706;2022-12-18T04:38:29;91873.25;;;8.30;100.00
3464;BME280;3551;41.578;24.706;2022-12-18T04:41:07;91881.34;;;8.37;100.00
3464;BME280;3551;41.578;24.706;2022-12-18T04:43:51;91869.81;;;8.30;100.00
3464;BME280;3551;41.578;24.706;2022-12-18T04:46:20;91880.47;;;8.30;100.00
3464;BME280;3551;41.578;24.706;2022-12-18T04:48:49;91868.66;;;8.27;100.00
3464;BME280;3551;41.578;24.706;2022-12-18T04:51:17;91879.22;;;8.24;100.00
3464;BME280;3551;41.578;24.706;2022-12-18T04:54:01;91886.75;;;8.18;100.00
3464;BME280;3551;41.578;24.706;2022-12-18T04:56:41;91897.47;;;8.22;100.00
3464;BME280;3551;41.578;24.706;2022-12-18T04:59:33;91889.31;;;8.11;100.00
3464;BME280;3551;41.578;24.706;2022-12-18T05:02:26;91901.19;;;8.17;100.00
3464;BME280;3551;41.578;24.706;2022-12-18T05:05:25;91904.63;;;8.18;100.00
3464;BME280;3551;41.578;24.706;2022-12-18T05:08:12;91906.88;;;8.16;100.00
3464;BME280;3551;41.578;24.706;2022-12-18T05:14:04;91919.59;;;8.26;100.00
3464;BME280;3551;41.578;24.706;2022-12-18T05:16:44;91920.44;;;8.30;100.00
3464;BME280;3551;41.578;24.706;2022-12-18T05:19:36;91931.47;;;8.28;100.00
3464;BME280;3551;41.578;24.706;2022-12-18T05:22:24;91928.81;;;8.28;100.00
3464;BME280;3551;41.578;24.706;2022-12-18T05:25:09;91944.66;;;8.21;100.00
3464;BME280;3551;41.578;24.706;2022-12-18T05:27:39;91940.59;;;8.27;100.00
3464;BME280;3551;41.578;24.706;2022-12-18T05:32:57;91952.69;;;8.25;100.00
3464;BME280;3551;41.578;24.706;2022-12-18T05:35:24;91945.72;;;8.17;100.00
3464;BME280;3551;41.578;24.706;2022-12-18T05:37:58;91950.53;;;8.30;100.00
3464;BME280;3551;41.578;24.706;2022-12-18T05:40:27;91951.25;;;8.27;100.00
3464;BME280;3551;41.578;24.706;2022-12-18T05:42:59;91958.44;;;8.27;100.00
3464;BME280;3551;41.578;24.706;2022-12-18T05:45:36;91962.81;;;8.16;100.00
3464;BME280;3551;41.578;24.706;2022-12-18T05:50:55;91964.41;;;8.20;100.00
3464;BME280;3551;41.578;24.706;2022-12-18T05:53:36;91966.03;;;8.25;100.00
3464;BME280;3551;41.578;24.706;2022-12-18T05:56:12;91970.16;;;8.22;100.00
3464;BME280;3551;41.578;24.706;2022-12-18T06:02:03;91972.97;;;8.29;100.00
3464;BME280;3551;41.578;24.706;2022-12-18T06:04:53;91984.84;;;8.13;100.00
3464;BME280;3551;41.578;24.706;2022-12-18T06:20:05;91992.53;;;8.18;100.00
3464;BME280;3551;41.578;24.706;2022-12-18T06:22:39;91991.81;;;8.21;100.00
3464;BME280;3551;41.578;24.706;2022-12-18T06:25:15;92004.03;;;8.22;100.00
3464;BME280;3551;41.578;24.706;2022-12-18T06:28:00;92007.00;;;8.17;100.00
3464;BME280;3551;41.578;24.706;2022-12-18T06:33:56;92016.81;;;8.13;100.00
3464;BME280;3551;41.578;24.706;2022-12-18T06:49:20;92033.25;;;8.37;100.00
3464;BME280;3551;41.578;24.706;2022-12-18T06:52:05;92036.97;;;8.33;100.00
3464;BME280;3551;41.578;24.706;2022-12-18T06:54:37;92040.44;;;8.14;100.00
3464;BME280;3551;41.578;24.706;2022-12-18T06:57:29;92044.50;;;8.27;100.00
3464;BME280;3551;41.578;24.706;2022-12-18T07:00:10;92044.72;;;8.41;100.00
3464;BME280;3551;41.578;24.706;2022-12-18T07:02:51;92042.47;;;8.43;100.00
3464;BME280;3551;41.578;24.706;2022-12-18T07:05:38;92051.59;;;8.42;100.00
3464;BME280;3551;41.578;24.706;2022-12-18T07:11:23;92055.16;;;8.50;100.00
3464;BME280;3551;41.578;24.706;2022-12-18T07:14:28;92053.72;;;8.56;100.00
3464;BME280;3551;41.578;24.706;2022-12-18T07:17:02;92057.94;;;8.57;100.00
3464;BME280;3551;41.578;24.706;2022-12-18T07:20:05;92059.22;;;8.67;100.00
3464;BME280;3551;41.578;24.706;2022-12-18T07:23:06;92053.19;;;8.70;100.00
3464;BME280;3551;41.578;24.706;2022-12-18T07:26:06;92056.81;;;8.84;100.00
3464;BME280;3551;41.578;24.706;2022-12-18T08:38:55;92110.34;;;8.95;100.00
3464;BME280;3551;41.578;24.706;2022-12-18T08:41:31;92103.72;;;9.12;100.00
3464;BME280;3551;41.578;24.706;2022-12-18T08:44:23;92109.03;;;9.38;100.00
3464;BME280;3551;41.578;24.706;2022-12-18T08:47:10;92104.75;;;9.30;100.00
3464;BME280;3551;41.578;24.706;2022-12-18T08:49:46;92095.13;;;9.25;100.00
3464;BME280;3551;41.578;24.706;2022-12-18T08:53:00;92094.38;;;8.98;100.00
3464;BME280;3551;41.578;24.706;2022-12-18T09:03:23;92096.34;;;9.31;100.00
3464;BME280;3551;41.578;24.706;2022-12-18T09:06:28;92095.13;;;9.51;100.00
3464;BME280;3551;41.578;24.706;2022-12-18T09:13:08;92102.38;;;9.51;100.00
3464;BME280;3551;41.578;24.706;2022-12-18T09:16:05;92099.03;;;9.31;100.00
3464;BME280;3551;41.578;24.706;2022-12-18T09:22:37;92101.13;;;9.45;100.00
3464;BME280;3551;41.578;24.706;2022-12-18T09:32:54;92090.03;;;9.73;100.00
3464;BME280;3551;41.578;24.706;2022-12-18T09:36:02;92079.31;;;9.69;100.00
3464;BME280;3551;41.578;24.706;2022-12-18T10:05:46;92069.31;;;9.96;100.00
3464;BME280;3551;41.578;24.706;2022-12-18T10:08:36;92084.63;;;9.99;100.00
3464;BME280;3551;41.578;24.706;2022-12-18T10:14:09;92072.81;;;10.00;100.00
3464;BME280;3551;41.578;24.706;2022-12-18T10:16:57;92076.31;;;10.07;100.00
3464;BME280;3551;41.578;24.706;2022-12-18T10:19:48;92081.81;;;10.22;100.00
3464;BME280;3551;41.578;24.706;2022-12-18T10:22:40;92078.06;;;10.26;100.00
3464;BME280;3551;41.578;24.706;2022-12-18T10:25:24;92068.53;;;10.29;100.00
3464;BME280;3551;41.578;24.706;2022-12-18T10:31:25;92070.78;;;10.23;100.00
3464;BME280;3551;41.578;24.706;2022-12-18T10:34:17;92069.25;;;10.22;100.00
3464;BME280;3551;41.578;24.706;2022-12-18T10:37:22;92075.34;;;10.23;100.00
3464;BME280;3551;41.578;24.706;2022-12-18T10:55:30;92074.63;;;10.26;100.00
3464;BME280;3551;41.578;24.706;2022-12-18T10:58:30;92084.28;;;10.37;100.00
3464;BME280;3551;41.578;24.706;2022-12-18T11:01:12;92076.66;;;10.36;100.00
3464;BME280;3551;41.578;24.706;2022-12-18T11:04:08;92073.06;;;10.25;100.00
3464;BME280;3551;41.578;24.706;2022-12-18T11:06:51;92073.56;;;10.34;100.00
3464;BME280;3551;41.578;24.706;2022-12-18T11:09:22;92068.94;;;10.31;100.00
3464;BME280;3551;41.578;24.706;2022-12-18T11:11:59;92063.19;;;10.29;100.00
3464;BME280;3551;41.578;24.706;2022-12-18T11:14:33;92064.63;;;10.19;100.00
3464;BME280;3551;41.578;24.706;2022-12-18T11:17:18;92062.00;;;10.23;100.00
3464;BME280;3551;41.578;24.706;2022-12-18T11:19:52;92056.81;;;10.40;100.00
3464;BME280;3551;41.578;24.706;2022-12-18T11:34:24;92062.31;;;10.58;100.00
3464;BME280;3551;41.578;24.706;2022-12-18T11:37:01;92060.56;;;10.76;100.00
3464;BME280;3551;41.578;24.706;2022-12-18T11:40:00;92061.19;;;10.62;100.00
3464;BME280;3551;41.578;24.706;2022-12-18T11:42:54;92063.13;;;10.62;100.00
3464;BME280;3551;41.578;24.706;2022-12-18T11:45:40;92060.63;;;10.39;100.00
3464;BME280;3551;41.578;24.706;2022-12-18T11:48:26;92061.22;;;10.19;100.00
3464;BME280;3551;41.578;24.706;2022-12-18T12:16:57;92071.84;;;9.82;100.00
3464;BME280;3551;41.578;24.706;2022-12-18T12:19:45;92074.56;;;9.85;100.00
3464;BME280;3551;41.578;24.706;2022-12-18T12:25:19;92070.69;;;10.16;100.00
3464;BME280;3551;41.578;24.706;2022-12-18T12:29:00;92070.25;;;10.10;100.00
3464;BME280;3551;41.578;24.706;2022-12-18T12:56:43;92087.84;;;9.82;100.00
3464;BME280;3551;41.578;24.706;2022-12-18T12:59:37;92084.25;;;9.67;100.00
3464;BME280;3551;41.578;24.706;2022-12-18T13:02:52;92092.47;;;9.85;100.00
3464;BME280;3551;41.578;24.706;2022-12-18T13:05:43;92091.63;;;9.77;100.00
3464;BME280;3551;41.578;24.706;2022-12-18T13:08:51;92091.47;;;9.67;100.00
3464;BME280;3551;41.578;24.706;2022-12-18T13:14:51;92090.19;;;9.83;100.00
3464;BME280;3551;41.578;24.706;2022-12-18T13:17:44;92099.75;;;9.88;100.00
3464;BME280;3551;41.578;24.706;2022-12-18T13:20:40;92103.22;;;9.88;100.00
3464;BME280;3551;41.578;24.706;2022-12-18T13:23:46;92098.94;;;9.84;100.00
3464;BME280;3551;41.578;24.706;2022-12-18T13:26:40;92098.84;;;10.06;100.00
3464;BME280;3551;41.578;24.706;2022-12-18T13:29:41;92099.28;;;10.12;100.00
3464;BME280;3551;41.578;24.706;2022-12-18T13:38:18;92110.22;;;10.00;100.00
3464;BME280;3551;41.578;24.706;2022-12-18T13:45:08;92104.56;;;9.75;100.00
3464;BME280;3551;41.578;24.706;2022-12-18T13:48:22;92112.06;;;9.66;100.00
3464;BME280;3551;41.578;24.706;2022-12-18T13:51:10;92121.84;;;9.51;100.00
3464;BME280;3551;41.578;24.706;2022-12-18T13:53:42;92124.84;;;9.50;100.00
3464;BME280;3551;41.578;24.706;2022-12-18T13:56:15;92122.59;;;9.82;100.00
3464;BME280;3551;41.578;24.706;2022-12-18T13:58:47;92124.63;;;9.62;100.00
3464;BME280;3551;41.578;24.706;2022-12-18T14:01:32;92125.69;;;9.57;100.00
3464;BME280;3551;41.578;24.706;2022-12-18T14:06:47;92118.34;;;9.47;100.00
3464;BME280;3551;41.578;24.706;2022-12-18T14:09:16;92126.59;;;9.39;100.00
3464;BME280;3551;41.578;24.706;2022-12-18T14:11:47;92131.53;;;9.37;100.00
3464;BME280;3551;41.578;24.706;2022-12-18T14:14:18;92135.38;;;9.39;100.00
3464;BME280;3551;41.578;24.706;2022-12-18T14:16:57;92140.66;;;9.36;100.00
3464;BME280;3551;41.578;24.706;2022-12-18T14:19:34;92144.50;;;9.38;100.00
3464;BME280;3551;41.578;24.706;2022-12-18T14:22:17;92140.03;;;9.20;100.00
3464;BME280;3551;41.578;24.706;2022-12-18T14:25:04;92153.63;;;9.34;100.00
3464;BME280;3551;41.578;24.706;2022-12-18T14:28:13;92161.38;;;9.20;100.00
3464;BME280;3551;41.578;24.706;2022-12-18T14:30:43;92158.59;;;9.35;100.00
3464;BME280;3551;41.578;24.706;2022-12-18T14:33:19;92156.69;;;9.36;100.00
3464;BME280;3551;41.578;24.706;2022-12-18T14:36:01;92158.22;;;9.11;100.00
3464;BME280;3551;41.578;24.706;2022-12-18T14:38:30;92161.34;;;8.93;100.00
3464;BME280;3551;41.578;24.706;2022-12-18T14:41:13;92157.97;;;8.96;100.00
3464;BME280;3551;41.578;24.706;2022-12-18T14:44:10;92159.22;;;8.80;100.00
3464;BME280;3551;41.578;24.706;2022-12-18T14:46:39;92163.22;;;8.89;100.00
3464;BME280;3551;41.578;24.706;2022-12-18T14:49:33;92166.41;;;8.98;100.00
3464;BME280;3551;41.578;24.706;2022-12-18T14:52:14;92161.97;;;8.83;100.00
3464;BME280;3551;41.578;24.706;2022-12-18T14:55:13;92166.59;;;8.86;100.00
3464;BME280;3551;41.578;24.706;2022-12-18T14:58:10;92170.31;;;9.04;100.00
3464;BME280;3551;41.578;24.706;2022-12-18T15:00:51;92169.91;;;8.80;100.00
3464;BME280;3551;41.578;24.706;2022-12-18T15:03:50;92178.03;;;9.10;100.00
3464;BME280;3551;41.578;24.706;2022-12-18T15:15:02;92183.28;;;8.61;100.00
3464;BME280;3551;41.578;24.706;2022-12-18T15:17:47;92179.66;;;8.49;100.00
3464;BME280;3551;41.578;24.706;2022-12-18T15:20:26;92182.59;;;8.44;100.00
3464;BME280;3551;41.578;24.706;2022-12-18T15:23:01;92193.13;;;8.79;100.00
3464;BME280;3551;41.578;24.706;2022-12-18T15:25:54;92200.72;;;9.00;100.00
3464;BME280;3551;41.578;24.706;2022-12-18T15:32:15;92201.72;;;8.92;100.00
3464;BME280;3551;41.578;24.706;2022-12-18T15:35:22;92208.72;;;9.00;100.00
3464;BME280;3551;41.578;24.706;2022-12-18T15:38:31;92213.59;;;8.72;100.00
3464;BME280;3551;41.578;24.706;2022-12-18T15:41:04;92221.75;;;8.82;100.00
3464;BME280;3551;41.578;24.706;2022-12-18T15:43:42;92230.69;;;8.29;100.00
3464;BME280;3551;41.578;24.706;2022-12-18T15:46:12;92229.03;;;8.24;100.00
3464;BME280;3551;41.578;24.706;2022-12-18T15:48:54;92224.91;;;8.46;100.00
3464;BME280;3551;41.578;24.706;2022-12-18T15:51:23;92228.00;;;8.48;100.00
3464;BME280;3551;41.578;24.706;2022-12-18T15:54:09;92230.41;;;8.18;100.00
3464;BME280;3551;41.578;24.706;2022-12-18T15:57:09;92232.03;;;7.84;100.00
3464;BME280;3551;41.578;24.706;2022-12-18T16:00:11;92246.16;;;7.88;100.00
3464;BME280;3551;41.578;24.706;2022-12-18T16:17:49;92254.78;;;7.47;100.00
3464;BME280;3551;41.578;24.706;2022-12-18T16:20:27;92262.63;;;7.59;100.00
3464;BME280;3551;41.578;24.706;2022-12-18T16:22:57;92265.41;;;7.47;100.00
3464;BME280;3551;41.578;24.706;2022-12-18T16:25:27;92263.81;;;7.62;100.00
3464;BME280;3551;41.578;24.706;2022-12-18T16:28:17;92272.53;;;7.93;100.00
3464;BME280;3551;41.578;24.706;2022-12-18T16:31:22;92280.88;;;7.92;100.00
3464;BME280;3551;41.578;24.706;2022-12-18T16:42:49;92287.47;;;7.98;100.00
3464;BME280;3551;41.578;24.706;2022-12-18T16:45:22;92286.56;;;8.10;100.00
3464;BME280;3551;41.578;24.706;2022-12-18T16:47:50;92288.66;;;8.01;100.00
3464;BME280;3551;41.578;24.706;2022-12-18T16:50:29;92291.38;;;7.85;100.00
3464;BME280;3551;41.578;24.706;2022-12-18T16:52:56;92296.13;;;7.45;100.00
3464;BME280;3551;41.578;24.706;2022-12-18T16:55:26;92301.44;;;7.45;100.00
3464;BME280;3551;41.578;24.706;2022-12-18T16:58:03;92311.16;;;7.37;100.00
3464;BME280;3551;41.578;24.706;2022-12-18T17:00:42;92311.84;;;7.50;100.00
3464;BME280;3551;41.578;24.706;2022-12-18T17:06:28;92318.09;;;7.42;100.00
3464;BME280;3551;41.578;24.706;2022-12-18T17:09:31;92318.00;;;7.54;100.00
3464;BME280;3551;41.578;24.706;2022-12-18T17:12:12;92316.06;;;7.35;100.00
3464;BME280;3551;41.578;24.706;2022-12-18T17:14:48;92319.88;;;6.91;100.00
3464;BME280;3551;41.578;24.706;2022-12-18T17:17:34;92313.81;;;6.62;100.00
3464;BME280;3551;41.578;24.706;2022-12-18T17:20:58;92322.34;;;6.56;100.00
3464;BME280;3551;41.578;24.706;2022-12-18T17:23:43;92325.19;;;6.63;100.00
3464;BME280;3551;41.578;24.706;2022-12-18T17:26:27;92320.22;;;6.61;100.00
3464;BME280;3551;41.578;24.706;2022-12-18T17:29:09;92317.56;;;6.61;100.00
3464;BME280;3551;41.578;24.706;2022-12-18T17:43:56;92343.78;;;6.35;100.00
3464;BME280;3551;41.578;24.706;2022-12-18T17:46:28;92343.09;;;6.38;100.00
3464;BME280;3551;41.578;24.706;2022-12-18T17:49:26;92349.94;;;6.39;100.00
3464;BME280;3551;41.578;24.706;2022-12-18T17:52:04;92348.81;;;6.25;100.00
3464;BME280;3551;41.578;24.706;2022-12-18T17:54:53;92347.34;;;6.27;100.00
3464;BME280;3551;41.578;24.706;2022-12-18T17:57:29;92352.44;;;6.20;100.00
3464;BME280;3551;41.578;24.706;2022-12-18T18:21:17;92382.63;;;6.79;100.00
3464;BME280;3551;41.578;24.706;2022-12-18T18:27:36;92387.44;;;6.90;100.00
3464;BME280;3551;41.578;24.706;2022-12-18T18:30:23;92393.41;;;6.71;100.00
3464;BME280;3551;41.578;24.706;2022-12-18T18:36:32;92380.47;;;6.57;100.00
3464;BME280;3551;41.578;24.706;2022-12-18T18:43:13;92399.66;;;6.78;100.00
3464;BME280;3551;41.578;24.706;2022-12-18T18:46:05;92391.16;;;6.33;100.00
3464;BME280;3551;41.578;24.706;2022-12-18T18:48:49;92396.69;;;6.28;100.00
3464;BME280;3551;41.578;24.706;2022-12-18T18:51:37;92399.09;;;6.45;100.00
3464;BME280;3551;41.578;24.706;2022-12-18T18:54:23;92404.06;;;6.59;100.00
3464;BME280;3551;41.578;24.706;2022-12-18T18:57:32;92399.59;;;6.23;100.00
3464;BME280;3551;41.578;24.706;2022-12-18T19:03:30;92410.88;;;6.20;100.00
3464;BME280;3551;41.578;24.706;2022-12-18T19:06:13;92414.31;;;6.08;100.00
3464;BME280;3551;41.578;24.706;2022-12-18T19:08:48;92432.13;;;6.08;100.00
3464;BME280;3551;41.578;24.706;2022-12-18T19:14:57;92434.22;;;6.39;100.00
3464;BME280;3551;41.578;24.706;2022-12-18T19:17:32;92432.78;;;6.17;100.00
3464;BME280;3551;41.578;24.706;2022-12-18T19:20:07;92439.66;;;6.18;100.00
3464;BME280;3551;41.578;24.706;2022-12-18T19:22:37;92426.59;;;6.01;100.00
3464;BME280;3551;41.578;24.706;2022-12-18T19:25:11;92419.31;;;5.86;100.00
3464;BME280;3551;41.578;24.706;2022-12-18T19:27:40;92425.00;;;5.76;100.00
3464;BME280;3551;41.578;24.706;2022-12-18T19:30:08;92426.50;;;5.97;100.00
3464;BME280;3551;41.578;24.706;2022-12-18T19:32:50;92425.94;;;5.92;100.00
3464;BME280;3551;41.578;24.706;2022-12-18T19:35:34;92438.31;;;6.12;100.00
3464;BME280;3551;41.578;24.706;2022-12-18T19:38:09;92444.31;;;6.09;100.00
3464;BME280;3551;41.578;24.706;2022-12-18T19:46:52;92451.59;;;6.36;100.00
3464;BME280;3551;41.578;24.706;2022-12-18T19:49:50;92462.94;;;6.73;100.00
3464;BME280;3551;41.578;24.706;2022-12-18T19:52:22;92458.38;;;6.86;100.00
3464;BME280;3551;41.578;24.706;2022-12-18T19:54:51;92465.69;;;6.89;100.00
3464;BME280;3551;41.578;24.706;2022-12-18T19:57:18;92466.13;;;6.78;100.00
3464;BME280;3551;41.578;24.706;2022-12-18T19:59:46;92462.16;;;6.72;100.00
3464;BME280;3551;41.578;24.706;2022-12-18T20:02:16;92456.38;;;6.18;100.00
3464;BME280;3551;41.578;24.706;2022-12-18T20:04:43;92472.66;;;5.72;100.00
3464;BME280;3551;41.578;24.706;2022-12-18T20:07:10;92462.59;;;5.65;100.00
3464;BME280;3551;41.578;24.706;2022-12-18T20:09:44;92465.94;;;5.75;100.00
3464;BME280;3551;41.578;24.706;2022-12-18T20:12:11;92466.31;;;5.97;100.00
3464;BME280;3551;41.578;24.706;2022-12-18T20:14:39;92473.53;;;6.21;100.00
3464;BME280;3551;41.578;24.706;2022-12-18T20:17:13;92472.06;;;6.23;100.00
3464;BME280;3551;41.578;24.706;2022-12-18T20:19:47;92476.81;;;5.94;100.00
3464;BME280;3551;41.578;24.706;2022-12-18T20:22:14;92473.34;;;5.81;100.00
3464;BME280;3551;41.578;24.706;2022-12-18T20:24:44;92474.09;;;5.69;100.00
3464;BME280;3551;41.578;24.706;2022-12-18T20:27:24;92485.91;;;5.60;100.00
3464;BME280;3551;41.578;24.706;2022-12-18T20:29:54;92482.94;;;5.61;100.00
3464;BME280;3551;41.578;24.706;2022-12-18T20:32:25;92493.94;;;5.39;100.00
3464;BME280;3551;41.578;24.706;2022-12-18T20:34:57;92479.53;;;5.28;100.00
3464;BME280;3551;41.578;24.706;2022-12-18T20:37:28;92486.97;;;5.14;100.00
3464;BME280;3551;41.578;24.706;2022-12-18T20:40:48;92489.97;;;5.13;100.00
3464;BME280;3551;41.578;24.706;2022-12-18T20:43:25;92494.00;;;5.31;100.00
3464;BME280;3551;41.578;24.706;2022-12-18T20:46:03;92495.53;;;5.32;100.00
3464;BME280;3551;41.578;24.706;2022-12-18T20:48:33;92493.84;;;5.15;100.00
3464;BME280;3551;41.578;24.706;2022-12-18T20:51:11;92504.50;;;5.06;100.00
3464;BME280;3551;41.578;24.706;2022-12-18T20:53:41;92507.94;;;5.07;100.00
3464;BME280;3551;41.578;24.706;2022-12-18T20:56:11;92508.53;;;4.92;100.00